(°C)
28°
29°
30°
30°
30°
30°
29°
(°C)
35°
35°
36°
37°
37°
36°
34°
SSE
جنوب
SSW
SSW
SW
WSW
WSW
(كم/سا)
5-10
6-12
7-13
7-14
8-15
8-16
8-17
(مم)
0
0.1
0.2
0.3
0.5
0.6
0.7
(%)
34
58
65
72
79
81
83

مستوى ارتفاع الشمس

/ 42.3°
sun-icon
UV 4
07:14
19:34
قمر الصباح (137°)
17:52
03:45

متر لتامبا (KTPF)

الوقت الشروط درجة الحرارة/
نقطة الندى
رياح مجال رؤية حالة الطقس غيوم الضغط تغيير خام
VFR 28°C / 25°C variable 0kt >10km - Scattered Clouds 4000ft - KTPF 171415Z AUTO 00000KT 10SM SCT040 BKN095 28/25 A3010 RMK AO2
VFR 27°C / 25°C 170º 4kt >10km - Scattered Clouds 3800ft - KTPF 171355Z AUTO 17004KT 10SM SCT038 SCT080 BKN100 27/25 A3009 RMK AO2
VFR 27°C / 25°C 160º 3kt >10km - Broken Clouds 10000ft - KTPF 171335Z AUTO 16003KT 10SM BKN100 27/25 A3009 RMK AO2
VFR 27°C / 25°C 160º 4kt >10km - Broken Clouds 9000ft - KTPF 171315Z AUTO 16004KT 10SM BKN090 BKN110 27/25 A3008 RMK AO2
VFR 27°C / 25°C 170º 6kt >10km - Broken Clouds 10000ft - KTPF 171255Z AUTO 17006KT 10SM BKN100 27/25 A3008 RMK AO2
VFR 27°C / 25°C 150º 3kt >10km - Broken Clouds 9000ft - KTPF 171235Z AUTO 15003KT 10SM BKN090 OVC110 27/25 A3008 RMK AO2
VFR 27°C / 25°C 140º 3kt >10km - Broken Clouds 10000ft - KTPF 171215Z AUTO 14003KT 10SM BKN100 OVC120 27/25 A3007 RMK AO2
VFR 26°C / 24°C variable 0kt >10km - Overcast 9000ft - KTPF 171155Z AUTO 00000KT 10SM OVC090 26/24 A3007 RMK AO2
VFR 26°C / 24°C 130º 4kt >10km - Scattered Clouds 900ft - KTPF 171135Z AUTO 13004KT 10SM SCT009 BKN090 OVC110 26/24 A3007 RMK AO2
VFR 25°C / 24°C 160º 3kt >10km - Scattered Clouds 900ft - KTPF 171115Z AUTO 16003KT 10SM SCT009 BKN100 OVC120 25/24 A3006 RMK AO2
VFR 25°C / 24°C variable 0kt >10km - Scattered Clouds 700ft - KTPF 171055Z AUTO 00000KT 10SM SCT007 BKN100 OVC120 25/24 A3005 RMK AO2
VFR 25°C / 25°C 150º 3kt >10km - Scattered Clouds 900ft - KTPF 171035Z AUTO 15003KT 10SM SCT009 BKN100 OVC110 25/25 A3004 RMK AO2
IFR 26°C / 25°C 160º 5kt >10km - Broken Clouds 900ft - KTPF 171015Z AUTO 16005KT 10SM BKN009 OVC100 26/25 A3004 RMK AO2
VFR 26°C / 25°C 170º 3kt >10km - Overcast 10000ft - KTPF 170955Z AUTO 17003KT 10SM OVC100 26/25 A3004 RMK AO2
VFR 25°C / 24°C 150º 3kt >10km - Broken Clouds 10000ft - KTPF 170935Z AUTO 15003KT 10SM BKN100 OVC110 25/24 A3002 RMK AO2
VFR 26°C / 25°C 170º 3kt >10km - Overcast 10000ft - KTPF 170915Z AUTO 17003KT 10SM OVC100 26/25 A3003 RMK AO2
VFR 26°C / 25°C 140º 5kt >10km - Overcast 10000ft - KTPF 170855Z AUTO 14005KT 10SM OVC100 26/25 A3001 RMK AO2
VFR 26°C / 25°C 170º 7kt >10km - Scattered Clouds 1400ft - KTPF 170835Z AUTO 17007KT 10SM SCT014 OVC100 26/25 A3002 RMK AO2
MVFR 26°C / 25°C 170º 6kt >10km - Broken Clouds 1400ft - KTPF 170815Z AUTO 17006KT 10SM BKN014 OVC100 26/25 A3001 RMK AO2
VFR 26°C / 25°C 160º 8kt >10km - Overcast 10000ft - KTPF 170755Z AUTO 16008KT 10SM OVC100 26/25 A3002 RMK AO2
VFR 26°C / 25°C 160º 7kt >10km - Overcast 10000ft - KTPF 170735Z AUTO 16007KT 10SM OVC100 26/25 A3002 RMK AO2
VFR 26°C / 25°C 150º 5kt >10km - Broken Clouds 10000ft - KTPF 170715Z AUTO 15005KT 10SM BKN100 OVC120 26/25 A3002 RMK AO2
VFR 26°C / 24°C variable 0kt >10km - Overcast 10000ft - KTPF 170655Z AUTO 00000KT 10SM OVC100 26/24 A3002 RMK AO2
VFR 25°C / 24°C variable 0kt >10km - Broken Clouds 10000ft - KTPF 170635Z AUTO 00000KT 10SM BKN100 25/24 A3002 RMK AO2

VFR

28°C / 25°C

[أكثر]
رياح variable 0kt
مجال رؤية >10km
حالة الطقس -
غيوم Scattered Clouds 4000ft
الضغط
تغيير -
خام KTPF 171415Z AUTO 00000KT 10SM SCT040 BKN095 28/25 A3010 RMK AO2

VFR

27°C / 25°C

[أكثر]
رياح 170º 4kt
مجال رؤية >10km
حالة الطقس -
غيوم Scattered Clouds 3800ft
الضغط
تغيير -
خام KTPF 171355Z AUTO 17004KT 10SM SCT038 SCT080 BKN100 27/25 A3009 RMK AO2

VFR

27°C / 25°C

[أكثر]
رياح 160º 3kt
مجال رؤية >10km
حالة الطقس -
غيوم Broken Clouds 10000ft
الضغط
تغيير -
خام KTPF 171335Z AUTO 16003KT 10SM BKN100 27/25 A3009 RMK AO2

VFR

27°C / 25°C

[أكثر]
رياح 160º 4kt
مجال رؤية >10km
حالة الطقس -
غيوم Broken Clouds 9000ft
الضغط
تغيير -
خام KTPF 171315Z AUTO 16004KT 10SM BKN090 BKN110 27/25 A3008 RMK AO2

VFR

27°C / 25°C

[أكثر]
رياح 170º 6kt
مجال رؤية >10km
حالة الطقس -
غيوم Broken Clouds 10000ft
الضغط
تغيير -
خام KTPF 171255Z AUTO 17006KT 10SM BKN100 27/25 A3008 RMK AO2

VFR

27°C / 25°C

[أكثر]
رياح 150º 3kt
مجال رؤية >10km
حالة الطقس -
غيوم Broken Clouds 9000ft
الضغط
تغيير -
خام KTPF 171235Z AUTO 15003KT 10SM BKN090 OVC110 27/25 A3008 RMK AO2

VFR

27°C / 25°C

[أكثر]
رياح 140º 3kt
مجال رؤية >10km
حالة الطقس -
غيوم Broken Clouds 10000ft
الضغط
تغيير -
خام KTPF 171215Z AUTO 14003KT 10SM BKN100 OVC120 27/25 A3007 RMK AO2

VFR

26°C / 24°C

[أكثر]
رياح variable 0kt
مجال رؤية >10km
حالة الطقس -
غيوم Overcast 9000ft
الضغط
تغيير -
خام KTPF 171155Z AUTO 00000KT 10SM OVC090 26/24 A3007 RMK AO2

VFR

26°C / 24°C

[أكثر]
رياح 130º 4kt
مجال رؤية >10km
حالة الطقس -
غيوم Scattered Clouds 900ft
الضغط
تغيير -
خام KTPF 171135Z AUTO 13004KT 10SM SCT009 BKN090 OVC110 26/24 A3007 RMK AO2

VFR

25°C / 24°C

[أكثر]
رياح 160º 3kt
مجال رؤية >10km
حالة الطقس -
غيوم Scattered Clouds 900ft
الضغط
تغيير -
خام KTPF 171115Z AUTO 16003KT 10SM SCT009 BKN100 OVC120 25/24 A3006 RMK AO2

VFR

25°C / 24°C

[أكثر]
رياح variable 0kt
مجال رؤية >10km
حالة الطقس -
غيوم Scattered Clouds 700ft
الضغط
تغيير -
خام KTPF 171055Z AUTO 00000KT 10SM SCT007 BKN100 OVC120 25/24 A3005 RMK AO2

VFR

25°C / 25°C

[أكثر]
رياح 150º 3kt
مجال رؤية >10km
حالة الطقس -
غيوم Scattered Clouds 900ft
الضغط
تغيير -
خام KTPF 171035Z AUTO 15003KT 10SM SCT009 BKN100 OVC110 25/25 A3004 RMK AO2

IFR

26°C / 25°C

[أكثر]
رياح 160º 5kt
مجال رؤية >10km
حالة الطقس -
غيوم Broken Clouds 900ft
الضغط
تغيير -
خام KTPF 171015Z AUTO 16005KT 10SM BKN009 OVC100 26/25 A3004 RMK AO2

VFR

26°C / 25°C

[أكثر]
رياح 170º 3kt
مجال رؤية >10km
حالة الطقس -
غيوم Overcast 10000ft
الضغط
تغيير -
خام KTPF 170955Z AUTO 17003KT 10SM OVC100 26/25 A3004 RMK AO2

VFR

25°C / 24°C

[أكثر]
رياح 150º 3kt
مجال رؤية >10km
حالة الطقس -
غيوم Broken Clouds 10000ft
الضغط
تغيير -
خام KTPF 170935Z AUTO 15003KT 10SM BKN100 OVC110 25/24 A3002 RMK AO2

VFR

26°C / 25°C

[أكثر]
رياح 170º 3kt
مجال رؤية >10km
حالة الطقس -
غيوم Overcast 10000ft
الضغط
تغيير -
خام KTPF 170915Z AUTO 17003KT 10SM OVC100 26/25 A3003 RMK AO2

VFR

26°C / 25°C

[أكثر]
رياح 140º 5kt
مجال رؤية >10km
حالة الطقس -
غيوم Overcast 10000ft
الضغط
تغيير -
خام KTPF 170855Z AUTO 14005KT 10SM OVC100 26/25 A3001 RMK AO2

VFR

26°C / 25°C

[أكثر]
رياح 170º 7kt
مجال رؤية >10km
حالة الطقس -
غيوم Scattered Clouds 1400ft
الضغط
تغيير -
خام KTPF 170835Z AUTO 17007KT 10SM SCT014 OVC100 26/25 A3002 RMK AO2

MVFR

26°C / 25°C

[أكثر]
رياح 170º 6kt
مجال رؤية >10km
حالة الطقس -
غيوم Broken Clouds 1400ft
الضغط
تغيير -
خام KTPF 170815Z AUTO 17006KT 10SM BKN014 OVC100 26/25 A3001 RMK AO2

VFR

26°C / 25°C

[أكثر]
رياح 160º 8kt
مجال رؤية >10km
حالة الطقس -
غيوم Overcast 10000ft
الضغط
تغيير -
خام KTPF 170755Z AUTO 16008KT 10SM OVC100 26/25 A3002 RMK AO2

VFR

26°C / 25°C

[أكثر]
رياح 160º 7kt
مجال رؤية >10km
حالة الطقس -
غيوم Overcast 10000ft
الضغط
تغيير -
خام KTPF 170735Z AUTO 16007KT 10SM OVC100 26/25 A3002 RMK AO2

VFR

26°C / 25°C

[أكثر]
رياح 150º 5kt
مجال رؤية >10km
حالة الطقس -
غيوم Broken Clouds 10000ft
الضغط
تغيير -
خام KTPF 170715Z AUTO 15005KT 10SM BKN100 OVC120 26/25 A3002 RMK AO2

VFR

26°C / 24°C

[أكثر]
رياح variable 0kt
مجال رؤية >10km
حالة الطقس -
غيوم Overcast 10000ft
الضغط
تغيير -
خام KTPF 170655Z AUTO 00000KT 10SM OVC100 26/24 A3002 RMK AO2

VFR

25°C / 24°C

[أكثر]
رياح variable 0kt
مجال رؤية >10km
حالة الطقس -
غيوم Broken Clouds 10000ft
الضغط
تغيير -
خام KTPF 170635Z AUTO 00000KT 10SM BKN100 25/24 A3002 RMK AO2

صور الأقمار الصناعية الملتقطة حالياً لتامبا, الولايات المتحدة الأمريكية

المؤشر يدل على موقع تامبا. [أكثر]

تجمع صورة الأقمار الصناعية في الوقت الفعلي بين الضوء المرئي أثناء النهار والأشعة تحت الحمراء أثناء الليل. لا تبدو الصورة مظلمة ليلاً، لأن الأشعة تحت الحمراء يمكنها الكشف عن الاختلافات في درجة الحرارة. لسوء الحظ ، يصعب التمييز بين السحب المنخفضة والضباب ودرجات حرارة الأرض ، وبالتالي يمكن أن تكون الصور غير مرئية تقريبًا أثناء الليل. يتم تحديث صور الأقمار الصناعية Meteosat الخاصة بأوروبا في الوقت الفعلي كل 5 دقائق، بينما يتم تحديث صور GOES-16 / GOES-17 (أمريكا الشمالية والجنوبية) و Himawari (آسيا) كل 10 دقائق.

رادار وهطول الأمطار التنبؤ الآني لتامبا

رذاذ
ضوء
معتدل
ثقيل
ثقيل جدا
وابل

مؤشر المكان يشير الى تامبا. تظهر في هذه الرسوم المتحركة هطول الامطار بالرادار للساعة الماضية, و توقعات 1h. رذاذ أو تساقط ثلوج خفيف قد يكون غير مرئي للرادار. كثافة هطول الأمطار مرمزة بالألوان وتتراوح من الأزرق الفاتح إلى البرتقالي.